createdAt,value
2019-05-05T00:00:45.491Z,0.00
2019-05-05T00:01:45.442Z,0.00
2019-05-05T00:02:45.417Z,0.00
2019-05-05T00:03:45.381Z,0.00
2019-05-05T00:04:45.586Z,0.00
2019-05-05T00:05:45.110Z,0.00
2019-05-05T00:06:45.077Z,0.00
2019-05-05T00:07:45.047Z,0.00
2019-05-05T00:08:45.676Z,0.00
2019-05-05T00:09:45.075Z,0.00
2019-05-05T00:10:45.287Z,0.00
2019-05-05T00:11:44.918Z,0.00
2019-05-05T00:12:44.971Z,0.00
2019-05-05T00:13:44.851Z,0.00
2019-05-05T00:14:44.824Z,0.00
2019-05-05T00:15:45.025Z,0.00
2019-05-05T00:16:44.752Z,0.00
2019-05-05T00:17:45.056Z,0.00
2019-05-05T00:18:44.857Z,0.00
2019-05-05T00:19:45.421Z,0.00
2019-05-05T00:20:44.730Z,0.00
2019-05-05T00:21:44.689Z,0.00
2019-05-05T00:22:45.499Z,0.00
2019-05-05T00:23:45.161Z,0.00
2019-05-05T00:24:44.532Z,0.00
2019-05-05T00:25:44.803Z,0.00
2019-05-05T00:26:46.035Z,0.00
2019-05-05T00:27:45.272Z,0.00
2019-05-05T00:28:44.895Z,0.00
2019-05-05T00:29:45.305Z,0.00
2019-05-05T00:30:44.902Z,0.00
2019-05-05T00:31:45.374Z,0.00
2019-05-05T00:32:44.342Z,0.00
2019-05-05T00:33:44.837Z,0.00
2019-05-05T00:34:44.533Z,0.00
2019-05-05T00:35:45.136Z,0.00
2019-05-05T00:36:44.668Z,0.00
2019-05-05T00:37:45.093Z,0.00
2019-05-05T00:38:44.513Z,0.00
2019-05-05T00:39:45.180Z,0.00
2019-05-05T00:40:44.387Z,0.00
2019-05-05T00:41:44.907Z,0.00
2019-05-05T00:42:45.620Z,0.00
2019-05-05T00:43:45.100Z,0.00
2019-05-05T00:44:44.688Z,0.00
2019-05-05T00:45:45.094Z,0.00
2019-05-05T00:46:44.695Z,0.00
2019-05-05T00:47:45.068Z,0.00
2019-05-05T00:48:44.444Z,0.00
2019-05-05T00:49:47.162Z,0.00
2019-05-05T00:50:44.967Z,0.00
2019-05-05T00:51:44.330Z,0.00
2019-05-05T00:52:44.574Z,0.00
2019-05-05T00:53:44.898Z,0.00
2019-05-05T00:54:45.022Z,0.00
2019-05-05T00:55:44.295Z,0.00
2019-05-05T00:56:45.061Z,0.00
2019-05-05T00:57:45.285Z,0.00
2019-05-05T00:58:44.607Z,0.00
2019-05-05T00:59:45.251Z,0.00
2019-05-05T01:00:44.405Z,0.00
2019-05-05T01:01:44.833Z,0.00
2019-05-05T01:02:44.920Z,0.00
2019-05-05T01:03:44.178Z,0.00
2019-05-05T01:04:44.526Z,0.00
2019-05-05T01:05:44.800Z,0.00
2019-05-05T01:06:44.984Z,0.00
2019-05-05T01:07:44.415Z,0.00
2019-05-05T01:08:44.508Z,0.00
2019-05-05T01:09:44.992Z,0.00
2019-05-05T01:10:44.305Z,0.00
2019-05-05T01:11:44.605Z,0.00
2019-05-05T01:12:44.920Z,0.00
2019-05-05T01:13:42.895Z,0.00
2019-05-05T01:14:44.784Z,0.00
2019-05-05T01:15:44.434Z,0.00
2019-05-05T01:16:42.802Z,0.00
2019-05-05T01:17:44.955Z,0.00
2019-05-05T01:18:44.898Z,0.00
2019-05-05T01:19:42.698Z,0.00
2019-05-05T01:20:44.727Z,0.00
2019-05-05T01:21:42.633Z,0.00
2019-05-05T01:22:44.696Z,0.00
2019-05-05T01:23:42.574Z,0.00
2019-05-05T01:24:42.535Z,0.00
2019-05-05T01:25:42.504Z,0.00
2019-05-05T01:26:44.476Z,0.00
2019-05-05T01:27:42.438Z,0.00
2019-05-05T01:28:44.559Z,0.00
2019-05-05T01:29:42.372Z,0.00
2019-05-05T01:30:44.409Z,0.00
2019-05-05T01:31:42.308Z,0.00
2019-05-05T01:32:44.486Z,0.00
2019-05-05T01:33:42.245Z,0.00
2019-05-05T01:34:44.240Z,0.00
2019-05-05T01:35:42.178Z,0.00
2019-05-05T01:36:42.145Z,0.00
2019-05-05T01:37:44.194Z,0.00
2019-05-05T01:38:42.080Z,0.00
2019-05-05T01:39:42.057Z,0.00
2019-05-05T01:40:42.012Z,0.00
2019-05-05T01:41:41.984Z,0.00
2019-05-05T01:42:41.949Z,0.00
2019-05-05T01:43:41.915Z,0.00
2019-05-05T01:44:41.882Z,0.00
2019-05-05T01:45:42.058Z,0.00
2019-05-05T01:46:41.820Z,0.00
2019-05-05T01:47:41.783Z,0.00
2019-05-05T01:48:41.752Z,0.00
2019-05-05T01:49:41.723Z,0.00
2019-05-05T01:50:41.686Z,0.00
2019-05-05T01:51:41.654Z,0.00
2019-05-05T01:52:41.620Z,0.00
2019-05-05T01:53:41.590Z,0.00
2019-05-05T01:54:41.557Z,0.00
2019-05-05T01:55:41.529Z,0.00
2019-05-05T01:56:41.493Z,0.00
2019-05-05T01:57:41.458Z,0.00
2019-05-05T01:58:41.430Z,0.00
2019-05-05T01:59:41.393Z,0.00
2019-05-05T02:00:41.361Z,0.00
2019-05-05T02:01:41.359Z,0.00
2019-05-05T02:02:41.293Z,0.00
2019-05-05T02:03:41.264Z,0.00
2019-05-05T02:04:41.231Z,0.00
2019-05-05T02:05:41.196Z,0.00
2019-05-05T02:06:41.174Z,0.00
2019-05-05T02:07:41.132Z,0.00
2019-05-05T02:08:41.098Z,0.00
2019-05-05T02:09:41.067Z,0.00
2019-05-05T02:10:41.033Z,0.00
2019-05-05T02:11:40.999Z,0.00
2019-05-05T02:12:40.977Z,0.00
2019-05-05T02:13:40.938Z,0.00
2019-05-05T02:14:40.903Z,0.00
2019-05-05T02:15:40.873Z,0.00
2019-05-05T02:16:40.836Z,0.00
2019-05-05T02:17:40.804Z,0.00
2019-05-05T02:18:40.770Z,0.00
2019-05-05T02:19:40.742Z,0.00
2019-05-05T02:20:40.706Z,0.00
2019-05-05T02:21:40.673Z,0.00
2019-05-05T02:22:40.641Z,0.00
2019-05-05T02:23:40.612Z,0.00
2019-05-05T02:24:40.575Z,0.00
2019-05-05T02:25:40.542Z,0.00
2019-05-05T02:26:40.711Z,0.00
2019-05-05T02:27:40.476Z,0.00
2019-05-05T02:28:40.444Z,0.00
2019-05-05T02:29:40.410Z,0.00
2019-05-05T02:30:40.580Z,0.00
2019-05-05T02:31:40.346Z,0.00
2019-05-05T02:32:40.314Z,0.00
2019-05-05T02:33:40.281Z,0.00
2019-05-05T02:34:40.251Z,0.00
2019-05-05T02:35:40.212Z,0.00
2019-05-05T02:36:40.184Z,0.00
2019-05-05T02:37:40.147Z,0.00
2019-05-05T02:38:40.115Z,0.00
2019-05-05T02:39:46.096Z,0.00
2019-05-05T02:40:40.049Z,0.00
2019-05-05T02:41:40.016Z,0.00
2019-05-05T02:42:39.984Z,0.00
2019-05-05T02:43:39.951Z,0.00
2019-05-05T02:44:39.920Z,0.00
2019-05-05T02:45:39.885Z,0.00
2019-05-05T02:46:39.853Z,0.00
2019-05-05T02:47:39.818Z,0.00
2019-05-05T02:48:39.786Z,0.00
2019-05-05T02:49:39.952Z,0.00
2019-05-05T02:50:54.920Z,0.00
2019-05-05T02:51:39.686Z,0.00
2019-05-05T02:52:39.651Z,0.00
2019-05-05T02:53:39.619Z,4.00
2019-05-05T02:54:39.589Z,4.00
2019-05-05T02:55:39.551Z,4.00
2019-05-05T02:56:39.520Z,0.00
2019-05-05T02:57:39.485Z,4.00
2019-05-05T02:58:39.453Z,4.00
2019-05-05T02:59:39.423Z,4.00
2019-05-05T03:00:39.386Z,4.00
2019-05-05T03:01:39.354Z,4.00
2019-05-05T03:02:39.319Z,4.00
2019-05-05T03:03:39.288Z,8.00
2019-05-05T03:04:39.256Z,8.00
2019-05-05T03:05:39.228Z,8.00
2019-05-05T03:06:39.188Z,8.00
2019-05-05T03:07:39.157Z,12.00
2019-05-05T03:08:39.123Z,12.00
2019-05-05T03:09:39.089Z,12.00
2019-05-05T03:10:39.060Z,16.00
2019-05-05T03:11:39.021Z,20.00
2019-05-05T03:12:38.996Z,24.00
2019-05-05T03:13:38.955Z,24.00
2019-05-05T03:14:38.923Z,28.00
2019-05-05T03:15:38.892Z,32.00
2019-05-05T03:16:38.856Z,40.00
2019-05-05T03:17:38.826Z,40.00
2019-05-05T03:18:38.792Z,48.00
2019-05-05T03:19:38.757Z,52.00
2019-05-05T03:20:38.725Z,64.00
2019-05-05T03:21:38.690Z,68.00
2019-05-05T03:22:38.660Z,80.00
2019-05-05T03:23:38.625Z,88.00
2019-05-05T03:24:38.598Z,100.00
2019-05-05T03:25:38.559Z,112.00
2019-05-05T03:26:38.525Z,124.00
2019-05-05T03:27:38.492Z,144.00
2019-05-05T03:28:38.464Z,160.00
2019-05-05T03:29:38.426Z,180.00
2019-05-05T03:30:38.393Z,200.00
2019-05-05T03:31:38.364Z,220.00
2019-05-05T03:32:38.329Z,244.00
2019-05-05T03:33:38.295Z,272.00
2019-05-05T03:34:38.259Z,296.00
2019-05-05T03:35:38.227Z,328.00
2019-05-05T03:36:38.195Z,360.00
2019-05-05T03:37:38.160Z,392.00
2019-05-05T03:38:38.127Z,428.00
2019-05-05T03:39:38.093Z,464.00
2019-05-05T03:40:38.060Z,504.00
2019-05-05T03:41:38.032Z,548.00
2019-05-05T03:42:37.994Z,596.00
2019-05-05T03:43:37.961Z,640.00
2019-05-05T03:44:37.933Z,688.00
2019-05-05T03:45:37.897Z,744.00
2019-05-05T03:46:37.863Z,800.00
2019-05-05T03:47:37.830Z,856.00
2019-05-05T03:48:37.796Z,916.00
2019-05-05T03:49:37.762Z,976.00
2019-05-05T03:50:37.729Z,1040.00
2019-05-05T03:51:37.698Z,1100.00
2019-05-05T03:52:37.663Z,1172.00
2019-05-05T03:53:37.631Z,1240.00
2019-05-05T03:54:37.596Z,1308.00
2019-05-05T03:55:37.563Z,1380.00
2019-05-05T03:56:37.532Z,1456.00
2019-05-05T03:57:37.499Z,1532.00
2019-05-05T03:58:37.465Z,1608.00
2019-05-05T03:59:37.433Z,1684.00
2019-05-05T04:00:37.411Z,1784.00
2019-05-05T04:01:37.367Z,1892.00
2019-05-05T04:02:37.333Z,1996.00
2019-05-05T04:03:37.299Z,2092.00
2019-05-05T04:04:37.268Z,2188.00
2019-05-05T04:05:37.284Z,2280.00
2019-05-05T04:06:37.204Z,2388.00
2019-05-05T04:07:37.171Z,2480.00
2019-05-05T04:08:37.135Z,2596.00
2019-05-05T04:09:37.104Z,2708.00
2019-05-05T04:10:37.070Z,2832.00
2019-05-05T04:11:37.037Z,2944.00
2019-05-05T04:12:37.008Z,3076.00
2019-05-05T04:13:36.975Z,3168.00
2019-05-05T04:14:36.942Z,3320.00
2019-05-05T04:15:36.910Z,3416.00
2019-05-05T04:16:36.876Z,3512.00
2019-05-05T04:17:36.845Z,3644.00
2019-05-05T04:18:36.811Z,3752.00
2019-05-05T04:19:36.780Z,3884.00
2019-05-05T04:20:36.748Z,4028.00
2019-05-05T04:21:36.980Z,4160.00
2019-05-05T04:22:36.687Z,4292.00
2019-05-05T04:23:36.653Z,4444.00
2019-05-05T04:24:36.822Z,4592.00
2019-05-05T04:25:36.590Z,4736.00
2019-05-05T04:26:36.559Z,4888.00
2019-05-05T04:27:36.525Z,5036.00
2019-05-05T04:28:36.697Z,5160.00
2019-05-05T04:29:36.463Z,5308.00
2019-05-05T04:30:36.637Z,5448.00
2019-05-05T04:31:36.403Z,5596.00
2019-05-05T04:32:36.374Z,5764.00
2019-05-05T04:33:36.339Z,5892.00
2019-05-05T04:34:36.508Z,6056.00
2019-05-05T04:35:36.275Z,6176.00
2019-05-05T04:36:36.246Z,6296.00
2019-05-05T04:37:36.214Z,6428.00
2019-05-05T04:38:36.396Z,6568.00
2019-05-05T04:39:36.355Z,6728.00
2019-05-05T04:48:24.176Z,8148.00
2019-05-05T04:49:23.496Z,8396.00
2019-05-05T04:50:23.891Z,8548.00
2019-05-05T04:51:24.369Z,8628.00
2019-05-05T04:52:23.629Z,8852.00
2019-05-05T04:53:24.118Z,8996.00
2019-05-05T04:54:24.293Z,9220.00
2019-05-05T04:55:24.331Z,9428.00
2019-05-05T04:56:23.456Z,9656.00
2019-05-05T04:57:24.033Z,9908.00
2019-05-05T04:58:24.134Z,10092.00
2019-05-05T04:59:23.542Z,10328.00
2019-05-05T05:00:24.024Z,10648.00
2019-05-05T05:01:23.733Z,11032.00
2019-05-05T05:02:23.617Z,11356.00
2019-05-05T05:03:23.865Z,11640.00
2019-05-05T05:04:21.876Z,11984.00
2019-05-05T05:05:21.852Z,12176.00
2019-05-05T05:06:23.698Z,12528.00
2019-05-05T05:07:24.059Z,12696.00
2019-05-05T05:08:21.767Z,13136.00
2019-05-05T05:09:23.621Z,13648.00
2019-05-05T05:10:23.939Z,13952.00
2019-05-05T05:11:21.673Z,14176.00
2019-05-05T05:12:23.580Z,13816.00
2019-05-05T05:13:21.614Z,13784.00
2019-05-05T05:14:21.583Z,14560.00
2019-05-05T05:15:23.374Z,14912.00
2019-05-05T05:16:21.528Z,15264.00
2019-05-05T05:17:21.498Z,15680.00
2019-05-05T05:18:21.469Z,15840.00
2019-05-05T05:19:21.442Z,16288.00
2019-05-05T05:20:21.415Z,16544.00
2019-05-05T05:21:21.387Z,16640.00
2019-05-05T05:22:21.556Z,16832.00
2019-05-05T05:23:21.326Z,17312.00
2019-05-05T05:24:21.301Z,17472.00
2019-05-05T05:25:21.272Z,17568.00
2019-05-05T05:26:21.242Z,17152.00
2019-05-05T05:27:21.213Z,17536.00
2019-05-05T05:28:23.505Z,17728.00
2019-05-05T05:29:21.358Z,17600.00
2019-05-05T05:31:24.340Z,18688.00
2019-05-05T05:32:21.072Z,18784.00
2019-05-05T05:33:21.048Z,18880.00
2019-05-05T05:34:21.421Z,19584.00
2019-05-05T05:35:21.000Z,19936.00
2019-05-05T05:36:21.163Z,20736.00
2019-05-05T05:37:20.935Z,21120.00
2019-05-05T06:05:11.878Z,27232.00
2019-05-05T06:06:13.699Z,26624.00
2019-05-05T07:55:59.916Z,62304.00
2019-05-05T08:09:00.553Z,65536.00
2019-05-05T08:10:04.594Z,67200.00
2019-05-05T08:19:29.209Z,81248.00
2019-05-05T08:20:28.984Z,81856.00
2019-05-05T08:21:29.161Z,80320.00
2019-05-05T08:23:27.995Z,79200.00
2019-05-05T08:24:11.510Z,81760.00
2019-05-05T08:25:11.486Z,85152.00
2019-05-05T08:26:13.599Z,86112.00
2019-05-05T08:27:11.240Z,87936.00
2019-05-05T08:28:11.422Z,56320.00
2019-05-05T08:29:11.198Z,89824.00
2019-05-05T08:30:11.379Z,43712.00
2019-05-05T08:31:11.156Z,90016.00
2019-05-05T08:32:13.479Z,92544.00
2019-05-05T08:33:11.110Z,89408.00
2019-05-05T08:34:11.292Z,90656.00
2019-05-05T08:35:11.271Z,96288.00
2019-05-05T08:36:11.249Z,99232.00
2019-05-05T08:47:04.745Z,115168.00
2019-05-05T08:48:05.334Z,113472.00
2019-05-05T08:49:47.098Z,66560.00
2019-05-05T08:50:47.077Z,36544.00
2019-05-05T08:51:47.058Z,36512.00
2019-05-05T08:52:46.836Z,39296.00
2019-05-05T08:53:48.372Z,42144.00
2019-05-05T08:54:46.795Z,122944.00
2019-05-05T08:55:46.774Z,121152.00
2019-05-05T08:56:46.757Z,87488.00
2019-05-05T08:57:46.736Z,94432.00
2019-05-05T08:58:49.713Z,35072.00
2019-05-05T08:59:46.692Z,31040.00
2019-05-05T09:00:46.670Z,27648.00
2019-05-05T09:02:29.247Z,23616.00
2019-05-05T09:03:29.023Z,22048.00
2019-05-05T09:04:29.004Z,21824.00
2019-05-05T09:05:29.182Z,23072.00
2019-05-05T09:06:29.159Z,24576.00
2019-05-05T09:09:36.364Z,29792.00
2019-05-05T09:14:50.646Z,29568.00
2019-05-05T09:30:16.015Z,35040.00
2019-05-05T09:31:15.779Z,35552.00
2019-05-05T09:32:15.753Z,36064.00
2019-05-05T09:33:18.263Z,36448.00
2019-05-05T09:34:15.697Z,36736.00
2019-05-05T09:35:15.672Z,37184.00
2019-05-05T09:36:15.646Z,38016.00
2019-05-05T09:37:15.619Z,39200.00
2019-05-05T09:38:15.598Z,43968.00
2019-05-05T09:39:15.572Z,46688.00
2019-05-05T09:40:15.543Z,44896.00
2019-05-05T09:41:15.517Z,43136.00
2019-05-05T09:42:15.490Z,43072.00
2019-05-05T09:43:15.466Z,42848.00
2019-05-05T09:44:15.440Z,42080.00
2019-05-05T09:45:15.420Z,41664.00
2019-05-05T09:46:15.390Z,39744.00
2019-05-05T09:47:15.365Z,38528.00
2019-05-05T09:48:15.341Z,37440.00
2019-05-05T09:49:15.314Z,36704.00
2019-05-05T09:50:15.287Z,40352.00
2019-05-05T09:51:15.266Z,65312.00
2019-05-05T09:52:15.239Z,115424.00
2019-05-05T09:54:44.039Z,116960.00
2019-05-05T09:59:13.540Z,83488.00
2019-05-05T10:00:54.826Z,112192.00
2019-05-05T10:01:54.478Z,117728.00
2019-05-05T10:02:54.529Z,117280.00
2019-05-05T10:04:37.637Z,124352.00
2019-05-05T10:05:36.607Z,47712.00
2019-05-05T10:06:36.583Z,48192.00
2019-05-05T10:07:36.764Z,47712.00
2019-05-05T10:08:36.540Z,47680.00
2019-05-05T10:09:36.523Z,47648.00
2019-05-05T10:10:36.501Z,47744.00
2019-05-05T10:12:19.085Z,75296.00
2019-05-05T10:13:18.852Z,81664.00
2019-05-05T10:14:18.832Z,127808.00
2019-05-05T10:15:18.815Z,72096.00
2019-05-05T10:16:18.791Z,119328.00
2019-05-05T10:17:18.770Z,110592.00
2019-05-05T10:18:18.753Z,59872.00
2019-05-05T10:19:18.728Z,38816.00
2019-05-05T10:20:18.706Z,21696.00
2019-05-05T10:21:18.693Z,20224.00
2019-05-05T10:22:18.665Z,19584.00
2019-05-05T10:23:18.645Z,19200.00
2019-05-05T10:24:27.908Z,18752.00
2019-05-05T10:25:18.600Z,18688.00
2019-05-05T10:26:18.786Z,19040.00
2019-05-05T10:27:18.760Z,19232.00
2019-05-05T10:28:18.538Z,19488.00
2019-05-05T10:29:18.513Z,19744.00
2019-05-05T10:31:43.769Z,20800.00
2019-05-05T10:32:43.878Z,21248.00
2019-05-05T10:33:43.254Z,21984.00
2019-05-05T10:34:44.026Z,22336.00
2019-05-05T10:35:43.854Z,22592.00
2019-05-05T10:49:26.385Z,37728.00
2019-05-05T10:50:26.157Z,39776.00
2019-05-05T10:51:26.128Z,41632.00
2019-05-05T10:52:26.299Z,44416.00
2019-05-05T10:53:26.070Z,45600.00
2019-05-05T10:54:40.170Z,46112.00
2019-05-05T10:55:26.019Z,46688.00
2019-05-05T10:56:25.993Z,47296.00
2019-05-05T10:57:25.968Z,47872.00
2019-05-05T10:58:25.944Z,48160.00
2019-05-05T10:59:25.914Z,47808.00
2019-05-05T11:00:25.890Z,46848.00
2019-05-05T11:01:25.862Z,45824.00
2019-05-05T11:02:25.838Z,44320.00
2019-05-05T11:03:25.816Z,47872.00
2019-05-05T11:04:25.786Z,41344.00
2019-05-05T11:05:25.766Z,40064.00
2019-05-05T11:06:25.759Z,39008.00
2019-05-05T11:11:40.258Z,32512.00
2019-05-05T11:34:34.331Z,130400.00
2019-05-05T11:42:38.240Z,38144.00
2019-05-05T11:43:38.018Z,58592.00
2019-05-05T11:44:37.997Z,47296.00
2019-05-05T11:45:38.177Z,33504.00
2019-05-05T11:46:37.955Z,29312.00
2019-05-05T11:47:37.935Z,26016.00
2019-05-05T11:48:38.418Z,23040.00
2019-05-05T11:49:38.094Z,20704.00
2019-05-05T11:50:38.087Z,19040.00
2019-05-05T11:51:38.054Z,18144.00
2019-05-05T11:53:20.435Z,18656.00
2019-05-05T11:54:21.416Z,19872.00
2019-05-05T11:56:04.152Z,22976.00
2019-05-05T11:57:04.392Z,25312.00
2019-05-05T11:58:03.564Z,27264.00
2019-05-05T11:59:03.926Z,29568.00
2019-05-05T12:00:03.803Z,31712.00
2019-05-05T12:01:03.778Z,33312.00
2019-05-05T12:02:03.772Z,34528.00
2019-05-05T12:03:03.801Z,35968.00
2019-05-05T12:04:04.087Z,38976.00
2019-05-05T12:05:04.473Z,49056.00
2019-05-05T12:18:45.586Z,124224.00
2019-05-05T12:19:48.399Z,126720.00
2019-05-05T12:20:45.340Z,124128.00
2019-05-05T12:26:04.570Z,116064.00
2019-05-05T12:26:59.649Z,116960.00
2019-05-05T12:27:59.832Z,117568.00
2019-05-05T12:29:44.086Z,116480.00
2019-05-05T12:33:33.531Z,43648.00
2019-05-05T12:34:31.539Z,50176.00
2019-05-05T12:35:31.521Z,42496.00
2019-05-05T12:36:31.501Z,44224.00
2019-05-05T12:37:31.479Z,46208.00
2019-05-05T12:38:31.463Z,45216.00
2019-05-05T12:39:33.483Z,49152.00
2019-05-05T12:40:33.640Z,56736.00
2019-05-05T12:41:31.602Z,53824.00
2019-05-05T13:01:11.391Z,47776.00
2019-05-05T13:02:11.150Z,55808.00
2019-05-05T13:03:11.126Z,46944.00
2019-05-05T13:04:11.103Z,44480.00
2019-05-05T13:05:11.076Z,42624.00
2019-05-05T13:06:11.054Z,42368.00
2019-05-05T13:07:11.028Z,45504.00
2019-05-05T13:08:11.002Z,55808.00
2019-05-05T13:09:10.979Z,122176.00
2019-05-05T13:10:10.958Z,61728.00
2019-05-05T13:11:10.931Z,50496.00
2019-05-05T13:12:10.907Z,47968.00
2019-05-05T13:13:10.882Z,62624.00
2019-05-05T13:14:10.858Z,49504.00
2019-05-05T13:15:10.836Z,48608.00
2019-05-05T13:16:10.811Z,49184.00
2019-05-05T13:17:10.797Z,53888.00
2019-05-05T13:18:10.772Z,51808.00
2019-05-05T13:19:10.757Z,58720.00
2019-05-05T13:20:10.719Z,58720.00
2019-05-05T13:21:10.695Z,92672.00
2019-05-05T13:29:57.194Z,82944.00
2019-05-05T13:30:56.968Z,55712.00
2019-05-05T13:31:56.941Z,69376.00
2019-05-05T15:06:16.256Z,22912.00
2019-05-05T15:07:14.457Z,80864.00
2019-05-05T15:08:13.608Z,71520.00
2019-05-05T15:09:13.918Z,33344.00
2019-05-05T15:10:14.472Z,37440.00
2019-05-05T15:11:14.205Z,28000.00
2019-05-05T15:12:14.355Z,72032.00
2019-05-05T16:40:49.074Z,15820.00
2019-05-05T16:42:31.434Z,15184.00
2019-05-05T16:43:33.630Z,14772.00
2019-05-05T16:46:38.548Z,14204.00
2019-05-05T16:47:38.517Z,14200.00
2019-05-05T16:48:38.894Z,14168.00
2019-05-05T16:49:38.266Z,13988.00
2019-05-05T16:50:38.434Z,13668.00
2019-05-05T16:51:38.411Z,13096.00
2019-05-05T16:52:38.183Z,12420.00
2019-05-05T16:53:38.149Z,11816.00
2019-05-05T16:54:38.122Z,11400.00
2019-05-05T16:55:38.108Z,11068.00
2019-05-05T16:56:38.067Z,10780.00
2019-05-05T16:57:38.245Z,10460.00
2019-05-05T16:58:38.013Z,10144.00
2019-05-05T16:59:37.984Z,9892.00
2019-05-05T17:00:37.958Z,9640.00
2019-05-05T17:01:37.927Z,9412.00
2019-05-05T17:02:38.106Z,9324.00
2019-05-05T17:03:37.874Z,9240.00
2019-05-05T17:04:37.850Z,9116.00
2019-05-05T17:05:37.818Z,8948.00
2019-05-05T17:06:37.794Z,8736.00
2019-05-05T17:07:37.761Z,8540.00
2019-05-05T17:08:37.735Z,8360.00
2019-05-05T17:09:39.124Z,8220.00
2019-05-05T17:15:35.474Z,7624.00
2019-05-05T17:16:35.340Z,7544.00
2019-05-05T17:17:34.340Z,7456.00
2019-05-05T17:18:36.124Z,7312.00
2019-05-05T17:19:34.494Z,7200.00
2019-05-05T17:20:34.254Z,7096.00
2019-05-05T17:21:34.279Z,7024.00
2019-05-05T17:22:34.197Z,6936.00
2019-05-05T17:23:34.272Z,6884.00
2019-05-05T17:24:34.505Z,6828.00
2019-05-05T17:25:34.347Z,6776.00
2019-05-05T17:26:35.479Z,6688.00
2019-05-05T17:27:47.063Z,6616.00
2019-05-05T17:28:34.028Z,6436.00
2019-05-05T17:29:34.492Z,6344.00
2019-05-05T17:30:34.216Z,6320.00
2019-05-05T17:31:34.106Z,6220.00
2019-05-05T17:32:34.450Z,6108.00
2019-05-05T17:33:33.974Z,6076.00
2019-05-05T17:34:34.092Z,6052.00
2019-05-05T17:35:33.837Z,5920.00
2019-05-05T17:36:33.801Z,5732.00
2019-05-05T17:37:33.776Z,5648.00
2019-05-05T17:38:34.278Z,5608.00
2019-05-05T17:39:34.503Z,5556.00
2019-05-05T17:40:33.731Z,5568.00
2019-05-05T17:41:34.126Z,5540.00
2019-05-05T17:42:34.794Z,5524.00
2019-05-05T17:43:34.112Z,5388.00
2019-05-05T17:44:33.712Z,5188.00
2019-05-05T17:45:34.409Z,5052.00
2019-05-05T17:46:33.728Z,4916.00
2019-05-05T17:47:34.321Z,4792.00
2019-05-05T17:48:33.461Z,4668.00
2019-05-05T17:49:33.431Z,4560.00
2019-05-05T17:50:33.405Z,4432.00
2019-05-05T17:51:33.373Z,4308.00
2019-05-05T17:52:34.367Z,4236.00
2019-05-05T17:53:34.428Z,4196.00
2019-05-05T17:54:33.889Z,4188.00
2019-05-05T17:55:33.930Z,4204.00
2019-05-05T17:56:33.668Z,4180.00
2019-05-05T17:57:34.501Z,4172.00
2019-05-05T17:58:34.038Z,4108.00
2019-05-05T17:59:33.891Z,3996.00
2019-05-05T18:00:34.276Z,3996.00
2019-05-05T18:01:33.688Z,4072.00
2019-05-05T18:02:34.337Z,4112.00
2019-05-05T18:03:34.090Z,4124.00
2019-05-05T18:04:33.777Z,4004.00
2019-05-05T18:05:34.145Z,3808.00
2019-05-05T18:06:34.375Z,3664.00
2019-05-05T18:07:34.589Z,3560.00
2019-05-05T18:08:33.772Z,3484.00
2019-05-05T18:09:34.444Z,3424.00
2019-05-05T18:10:34.429Z,3292.00
2019-05-05T18:11:35.052Z,3164.00
2019-05-05T18:12:33.750Z,3084.00
2019-05-05T18:13:32.738Z,3000.00
2019-05-05T18:14:33.530Z,2864.00
2019-05-05T18:15:34.113Z,2692.00
2019-05-05T18:16:33.919Z,2548.00
2019-05-05T18:17:33.970Z,2440.00
2019-05-05T18:18:32.592Z,2380.00
2019-05-05T18:19:33.981Z,2332.00
2019-05-05T18:20:34.120Z,2264.00
2019-05-05T18:21:34.647Z,2196.00
2019-05-05T18:22:34.256Z,2128.00
2019-05-05T18:23:34.165Z,2076.00
2019-05-05T18:24:33.702Z,2016.00
2019-05-05T18:25:34.209Z,1940.00
2019-05-05T18:26:34.111Z,1840.00
2019-05-05T18:27:34.307Z,1740.00
2019-05-05T18:28:34.044Z,1692.00
2019-05-05T18:29:34.015Z,1676.00
2019-05-05T18:30:33.472Z,1652.00
2019-05-05T18:31:33.656Z,1604.00
2019-05-05T18:32:33.879Z,1508.00
2019-05-05T18:33:33.853Z,1396.00
2019-05-05T18:34:32.127Z,1296.00
2019-05-05T18:35:33.860Z,1220.00
2019-05-05T18:36:32.066Z,1168.00
2019-05-05T18:37:33.930Z,1120.00
2019-05-05T18:38:33.649Z,1072.00
2019-05-05T18:39:34.136Z,1032.00
2019-05-05T18:40:33.646Z,992.00
2019-05-05T18:41:31.921Z,956.00
2019-05-05T18:42:33.861Z,924.00
2019-05-05T18:43:31.861Z,904.00
2019-05-05T18:44:33.466Z,860.00
2019-05-05T18:45:31.804Z,804.00
2019-05-05T18:46:33.635Z,752.00
2019-05-05T18:47:33.916Z,700.00
2019-05-05T18:48:31.716Z,644.00
2019-05-05T18:49:33.657Z,596.00
2019-05-05T18:50:31.656Z,548.00
2019-05-05T18:51:31.628Z,508.00
2019-05-05T18:52:31.598Z,468.00
2019-05-05T18:53:31.570Z,436.00
2019-05-05T18:54:31.540Z,404.00
2019-05-05T18:55:33.777Z,376.00
2019-05-05T18:56:31.480Z,352.00
2019-05-05T18:57:31.452Z,324.00
2019-05-05T18:58:31.423Z,304.00
2019-05-05T18:59:33.451Z,280.00
2019-05-05T19:00:31.363Z,260.00
2019-05-05T19:01:31.541Z,236.00
2019-05-05T19:02:31.303Z,220.00
2019-05-05T19:03:31.275Z,200.00
2019-05-05T19:04:31.244Z,184.00
2019-05-05T19:05:31.214Z,168.00
2019-05-05T19:06:31.185Z,148.00
2019-05-05T19:07:33.566Z,132.00
2019-05-05T19:08:31.125Z,120.00
2019-05-05T19:09:31.098Z,108.00
2019-05-05T19:10:31.069Z,96.00
2019-05-05T19:11:31.036Z,84.00
2019-05-05T19:12:31.031Z,72.00
2019-05-05T19:13:30.978Z,64.00
2019-05-05T19:14:30.950Z,56.00
2019-05-05T19:15:30.917Z,48.00
2019-05-05T19:16:31.093Z,44.00
2019-05-05T19:17:30.864Z,40.00
2019-05-05T19:18:30.827Z,32.00
2019-05-05T19:19:30.800Z,32.00
2019-05-05T19:20:30.971Z,28.00
2019-05-05T19:21:30.739Z,20.00
2019-05-05T19:22:30.709Z,20.00
2019-05-05T19:23:30.881Z,16.00
2019-05-05T19:24:30.657Z,16.00
2019-05-05T19:25:30.826Z,12.00
2019-05-05T19:26:30.595Z,12.00
2019-05-05T19:27:30.560Z,12.00
2019-05-05T19:28:41.250Z,8.00
2019-05-05T19:29:30.704Z,8.00
2019-05-05T19:30:30.671Z,8.00
2019-05-05T19:31:32.127Z,4.00
2019-05-05T19:32:30.411Z,4.00
2019-05-05T19:33:30.586Z,4.00
2019-05-05T19:34:30.552Z,4.00
2019-05-05T19:35:43.637Z,4.00
2019-05-05T19:36:30.291Z,0.00
2019-05-05T19:37:30.262Z,4.00
2019-05-05T19:38:30.231Z,4.00
2019-05-05T19:39:30.211Z,4.00
2019-05-05T19:40:30.175Z,0.00
2019-05-05T19:41:30.149Z,0.00
2019-05-05T19:42:30.111Z,0.00
2019-05-05T19:43:30.080Z,0.00
2019-05-05T19:44:30.050Z,0.00
2019-05-05T19:45:30.021Z,0.00
2019-05-05T19:46:29.990Z,0.00
2019-05-05T19:47:29.964Z,0.00
2019-05-05T19:48:29.931Z,0.00
2019-05-05T19:49:29.901Z,0.00
2019-05-05T19:50:29.875Z,0.00
2019-05-05T19:51:29.842Z,0.00
2019-05-05T19:52:29.812Z,0.00
2019-05-05T19:53:29.782Z,0.00
2019-05-05T19:54:29.961Z,0.00
2019-05-05T19:55:29.722Z,0.00
2019-05-05T19:56:29.691Z,0.00
2019-05-05T19:57:29.660Z,0.00
2019-05-05T19:58:29.635Z,0.00
2019-05-05T19:59:29.602Z,0.00
2019-05-05T20:00:29.570Z,0.00
2019-05-05T20:01:35.315Z,0.00
2019-05-05T20:02:29.510Z,0.00
2019-05-05T20:03:29.674Z,0.00
2019-05-05T20:04:29.451Z,0.00
2019-05-05T20:05:29.425Z,0.00
2019-05-05T20:06:29.389Z,0.00
2019-05-05T20:07:29.388Z,0.00
2019-05-05T20:08:40.384Z,0.00
2019-05-05T20:09:29.308Z,0.00
2019-05-05T20:10:29.270Z,0.00
2019-05-05T20:11:29.239Z,0.00
2019-05-05T20:12:29.209Z,0.00
2019-05-05T20:13:29.177Z,0.00
2019-05-05T20:14:29.148Z,0.00
2019-05-05T20:15:29.116Z,0.00
2019-05-05T20:16:29.086Z,0.00
2019-05-05T20:17:29.057Z,0.00
2019-05-05T20:18:29.033Z,0.00
2019-05-05T20:19:28.997Z,0.00
2019-05-05T20:20:28.967Z,0.00
2019-05-05T20:21:28.947Z,0.00
2019-05-05T20:22:28.906Z,0.00
2019-05-05T20:23:28.878Z,0.00
2019-05-05T20:24:28.845Z,0.00
2019-05-05T20:25:28.819Z,0.00
2019-05-05T20:26:28.784Z,0.00
2019-05-05T20:27:28.754Z,0.00
2019-05-05T20:28:28.722Z,0.00
2019-05-05T20:29:28.696Z,0.00
2019-05-05T20:30:28.662Z,0.00
2019-05-05T20:31:28.637Z,0.00
2019-05-05T20:32:28.607Z,0.00
2019-05-05T20:33:28.572Z,0.00